createdAt,value
2022-07-25T00:01:17.814Z,0.00
2022-07-25T00:03:47.916Z,0.00
2022-07-25T00:06:17.628Z,0.00
2022-07-25T00:08:50.041Z,0.00
2022-07-25T00:11:17.461Z,0.00
2022-07-25T00:13:46.428Z,0.60
2022-07-25T00:16:13.934Z,0.10
2022-07-25T00:18:42.100Z,0.00
2022-07-25T00:21:09.796Z,0.15
2022-07-25T00:23:37.523Z,2.45
2022-07-25T00:26:05.564Z,0.00
2022-07-25T00:28:33.045Z,0.00
2022-07-25T00:31:02.074Z,0.00
2022-07-25T00:33:29.748Z,0.00
2022-07-25T00:35:57.198Z,1.90
2022-07-25T00:38:24.645Z,0.85
2022-07-25T00:40:55.488Z,0.00
2022-07-25T00:43:23.365Z,0.00
2022-07-25T00:45:51.998Z,0.00
2022-07-25T00:48:20.846Z,0.00
2022-07-25T00:50:48.558Z,0.00
2022-07-25T00:53:16.390Z,0.95
2022-07-25T00:55:43.965Z,0.00
2022-07-25T00:58:11.643Z,0.00
2022-07-25T01:00:39.593Z,0.35
2022-07-25T01:03:07.385Z,0.00
2022-07-25T01:05:36.605Z,0.00
2022-07-25T01:08:05.214Z,0.00
2022-07-25T01:10:38.792Z,0.00
2022-07-25T01:13:07.136Z,0.00
2022-07-25T01:15:37.017Z,0.00
2022-07-25T01:18:07.167Z,0.20
2022-07-25T01:20:37.115Z,0.00
2022-07-25T01:23:06.021Z,0.00
2022-07-25T01:25:33.910Z,0.22
2022-07-25T01:28:01.348Z,0.00
2022-07-25T01:30:29.041Z,0.00
2022-07-25T01:32:56.663Z,0.10
2022-07-25T01:35:24.432Z,0.52
2022-07-25T01:37:53.280Z,0.10
2022-07-25T01:40:20.714Z,0.00
2022-07-25T01:42:48.145Z,0.00
2022-07-25T01:45:15.845Z,0.00
2022-07-25T01:47:43.554Z,0.00
2022-07-25T01:50:11.575Z,0.00
2022-07-25T01:52:41.686Z,0.00
2022-07-25T01:55:11.325Z,0.10
2022-07-25T01:57:39.977Z,0.00
2022-07-25T02:00:10.278Z,0.17
2022-07-25T02:02:37.728Z,0.85
2022-07-25T02:05:05.902Z,0.65
2022-07-25T02:07:33.333Z,1.10
2022-07-25T02:10:01.100Z,0.03
2022-07-25T02:12:30.132Z,1.00
2022-07-25T02:14:59.387Z,1.35
2022-07-25T02:17:28.364Z,0.00
2022-07-25T02:19:55.797Z,0.00
2022-07-25T02:22:23.445Z,0.00
2022-07-25T02:24:53.239Z,0.00
2022-07-25T02:27:20.766Z,0.00
2022-07-25T02:29:49.537Z,0.00
2022-07-25T02:32:19.010Z,0.00
2022-07-25T02:34:46.399Z,0.40
2022-07-25T02:37:13.930Z,0.00
2022-07-25T02:39:41.354Z,0.00
2022-07-25T02:42:09.155Z,0.00
2022-07-25T02:44:36.777Z,0.38
2022-07-25T02:47:05.673Z,0.00
2022-07-25T02:49:33.512Z,0.00
2022-07-25T02:52:02.767Z,0.00
2022-07-25T02:54:30.406Z,0.52
2022-07-25T02:56:57.840Z,0.00
2022-07-25T02:59:32.023Z,0.00
2022-07-25T03:01:59.822Z,0.00
2022-07-25T03:04:28.754Z,0.00
2022-07-25T03:06:56.158Z,0.10
2022-07-25T03:09:23.564Z,0.95
2022-07-25T03:11:52.002Z,1.55
2022-07-25T03:14:19.440Z,0.70
2022-07-25T03:16:46.979Z,0.57
2022-07-25T03:19:14.456Z,0.00
2022-07-25T03:21:45.258Z,0.17
2022-07-25T03:24:12.709Z,0.00
2022-07-25T03:26:40.549Z,0.00
2022-07-25T03:29:08.123Z,0.00
2022-07-25T03:31:35.701Z,0.00
2022-07-25T03:34:03.345Z,0.00
2022-07-25T03:36:31.118Z,0.00
2022-07-25T03:38:59.889Z,0.00
2022-07-25T03:41:33.033Z,0.00
2022-07-25T03:44:00.516Z,0.00
2022-07-25T03:46:28.107Z,0.00
2022-07-25T03:48:56.246Z,0.00
2022-07-25T03:51:23.723Z,0.00
2022-07-25T03:54:03.544Z,0.00
2022-07-25T03:56:36.913Z,0.00
2022-07-25T03:59:12.081Z,0.00
2022-07-25T04:01:41.728Z,0.00
2022-07-25T04:04:10.029Z,1.35
2022-07-25T04:06:38.627Z,0.00
2022-07-25T04:09:07.004Z,0.00
2022-07-25T04:11:35.937Z,0.00
2022-07-25T04:14:04.462Z,0.00
2022-07-25T04:16:33.021Z,0.00
2022-07-25T04:19:02.051Z,0.00
2022-07-25T04:21:29.839Z,0.00
2022-07-25T04:23:57.620Z,0.00
2022-07-25T04:26:25.416Z,0.00
2022-07-25T04:28:54.177Z,0.00
2022-07-25T04:31:22.277Z,0.00
2022-07-25T04:33:49.734Z,0.00
2022-07-25T04:36:17.183Z,0.00
2022-07-25T04:38:45.467Z,0.10
2022-07-25T04:41:13.041Z,0.00
2022-07-25T04:43:44.873Z,0.00
2022-07-25T04:46:21.427Z,0.45
2022-07-25T04:48:49.642Z,0.00
2022-07-25T04:51:17.353Z,0.03
2022-07-25T04:53:44.916Z,0.10
2022-07-25T04:56:13.738Z,0.00
2022-07-25T04:58:42.166Z,0.00
2022-07-25T05:01:09.810Z,0.00
2022-07-25T05:03:38.618Z,0.93
2022-07-25T05:06:06.437Z,0.00
2022-07-25T05:08:33.861Z,0.52
2022-07-25T05:11:02.301Z,0.00
2022-07-25T05:13:29.742Z,0.08
2022-07-25T05:15:57.165Z,0.00
2022-07-25T05:18:24.600Z,0.00
2022-07-25T05:20:53.345Z,0.00
2022-07-25T05:23:20.850Z,0.00
2022-07-25T05:25:48.347Z,0.20
2022-07-25T05:28:15.753Z,0.10
2022-07-25T05:30:43.165Z,0.00
2022-07-25T05:33:10.569Z,0.00
2022-07-25T05:35:38.104Z,0.00
2022-07-25T05:38:06.840Z,0.00
2022-07-25T05:40:34.393Z,1.02
2022-07-25T05:43:03.515Z,0.10
2022-07-25T05:45:31.289Z,0.00
2022-07-25T05:47:58.789Z,0.00
2022-07-25T05:50:26.371Z,0.00
2022-07-25T05:52:53.922Z,0.00
2022-07-25T05:55:22.696Z,0.00
2022-07-25T05:57:50.219Z,0.00
2022-07-25T06:00:17.962Z,0.00
2022-07-25T06:02:45.585Z,0.10
2022-07-25T06:05:13.146Z,0.00
2022-07-25T06:07:41.185Z,0.00
2022-07-25T06:10:09.104Z,0.00
2022-07-25T06:12:37.964Z,0.00
2022-07-25T06:15:17.765Z,0.25
2022-07-25T06:17:53.950Z,0.00
2022-07-25T06:20:21.440Z,0.30
2022-07-25T06:22:48.874Z,0.43
2022-07-25T06:25:16.261Z,0.20
2022-07-25T06:27:45.080Z,0.20
2022-07-25T06:30:19.861Z,0.05
2022-07-25T06:32:48.215Z,0.13
2022-07-25T06:35:16.159Z,0.00
2022-07-25T06:37:43.757Z,0.30
2022-07-25T06:40:12.002Z,0.80
2022-07-25T06:42:39.943Z,1.00
2022-07-25T06:45:10.983Z,0.93
2022-07-25T06:47:39.800Z,0.40
2022-07-25T06:50:11.254Z,0.20
2022-07-25T06:52:39.498Z,0.00
2022-07-25T06:55:11.310Z,0.25
2022-07-25T06:57:38.840Z,0.30
2022-07-25T07:00:12.140Z,0.00
2022-07-25T07:02:49.226Z,0.40
2022-07-25T07:05:16.750Z,0.38
2022-07-25T07:07:47.582Z,0.00
2022-07-25T07:10:15.507Z,0.55
2022-07-25T07:12:45.379Z,0.28
2022-07-25T07:15:14.479Z,0.98
2022-07-25T07:17:42.504Z,0.73
2022-07-25T07:20:11.993Z,0.45
2022-07-25T07:22:47.226Z,0.00
2022-07-25T07:25:16.185Z,0.85
2022-07-25T07:27:44.909Z,0.57
2022-07-25T07:30:22.174Z,0.00
2022-07-25T07:32:51.591Z,1.02
2022-07-25T07:35:23.219Z,0.80
2022-07-25T07:37:50.848Z,0.40
2022-07-25T07:40:21.765Z,1.65
2022-07-25T07:42:51.938Z,0.47
2022-07-25T07:45:22.539Z,0.32
2022-07-25T07:47:51.858Z,0.52
2022-07-25T07:50:21.629Z,0.75
2022-07-25T07:52:51.723Z,2.75
2022-07-25T07:55:37.191Z,3.58
2022-07-25T07:58:05.499Z,1.52
2022-07-25T08:00:39.251Z,1.90
2022-07-25T08:03:09.049Z,0.43
2022-07-25T08:05:40.370Z,1.67
2022-07-25T08:08:10.849Z,1.73
2022-07-25T08:10:40.768Z,1.67
2022-07-25T08:13:14.577Z,0.55
2022-07-25T08:15:46.600Z,1.42
2022-07-25T08:18:18.267Z,1.27
2022-07-25T08:20:47.768Z,1.58
2022-07-25T08:23:15.511Z,2.17
2022-07-25T08:25:43.723Z,3.72
2022-07-25T08:28:11.213Z,3.47
2022-07-25T08:30:43.120Z,2.03
2022-07-25T08:33:13.319Z,1.83
2022-07-25T08:35:41.889Z,2.38
2022-07-25T08:38:11.433Z,1.77
2022-07-25T08:40:39.006Z,1.48
2022-07-25T08:43:06.545Z,1.02
2022-07-25T08:45:34.584Z,1.50
2022-07-25T08:48:03.391Z,1.35
2022-07-25T08:50:31.212Z,1.70
2022-07-25T08:53:30.308Z,0.85
2022-07-25T08:55:46.911Z,1.88
2022-07-25T08:58:16.172Z,1.52
2022-07-25T09:00:44.640Z,0.73
2022-07-25T09:03:14.118Z,4.50
2022-07-25T09:05:42.496Z,2.03
2022-07-25T09:08:11.511Z,2.45
2022-07-25T09:10:39.880Z,1.55
2022-07-25T09:13:13.964Z,1.67
2022-07-25T09:15:45.589Z,0.03
2022-07-25T09:20:46.970Z,0.52
2022-07-25T09:23:16.600Z,1.73
2022-07-25T09:25:44.172Z,3.13
2022-07-25T09:28:16.295Z,0.40
2022-07-25T09:30:55.883Z,0.90
2022-07-25T09:33:26.122Z,1.35
2022-07-25T09:35:54.418Z,0.63
2022-07-25T09:38:24.968Z,0.35
2022-07-25T09:40:57.667Z,0.85
2022-07-25T09:43:25.292Z,1.40
2022-07-25T09:45:53.559Z,2.45
2022-07-25T09:48:21.471Z,1.15
2022-07-25T09:50:51.402Z,1.33
2022-07-25T09:53:20.305Z,1.60
2022-07-25T09:55:47.912Z,1.67
2022-07-25T09:58:15.356Z,0.73
2022-07-25T10:00:43.940Z,0.52
2022-07-25T10:03:18.839Z,1.15
2022-07-25T10:06:09.363Z,2.42
2022-07-25T10:08:38.571Z,0.70
2022-07-25T10:11:06.806Z,1.77
2022-07-25T10:13:36.515Z,0.88
2022-07-25T10:16:04.002Z,2.05
2022-07-25T10:18:32.405Z,0.95
2022-07-25T10:21:25.738Z,3.17
2022-07-25T10:24:03.602Z,0.43
2022-07-25T10:26:32.293Z,0.28
2022-07-25T10:29:01.567Z,2.15
2022-07-25T10:31:36.538Z,0.88
2022-07-25T10:34:06.178Z,1.55
2022-07-25T10:36:45.306Z,0.20
2022-07-25T10:39:14.397Z,1.30
2022-07-25T10:41:43.393Z,2.33
2022-07-25T10:44:13.363Z,2.33
2022-07-25T10:46:40.964Z,1.13
2022-07-25T10:49:09.659Z,1.08
2022-07-25T10:51:41.970Z,1.02
2022-07-25T10:56:53.663Z,1.92
2022-07-25T10:59:32.864Z,3.55
2022-07-25T11:02:02.888Z,1.00
2022-07-25T11:04:30.806Z,1.75
2022-07-25T11:06:58.405Z,1.25
2022-07-25T11:09:28.749Z,1.70
2022-07-25T11:11:58.970Z,2.13
2022-07-25T11:14:31.190Z,1.52
2022-07-25T11:19:28.444Z,0.95
2022-07-25T11:21:57.574Z,2.00
2022-07-25T11:24:38.773Z,1.73
2022-07-25T11:27:11.419Z,1.10
2022-07-25T11:29:41.062Z,2.42
2022-07-25T11:32:10.628Z,1.98
2022-07-25T11:34:41.190Z,2.40
2022-07-25T11:37:10.244Z,1.45
2022-07-25T11:39:41.885Z,0.70
2022-07-25T11:42:11.346Z,0.10
2022-07-25T11:44:44.259Z,1.58
2022-07-25T11:47:25.348Z,1.75
2022-07-25T11:49:55.095Z,2.75
2022-07-25T11:52:24.298Z,1.60
2022-07-25T11:54:58.367Z,1.42
2022-07-25T11:57:27.365Z,1.10
2022-07-25T11:59:56.796Z,1.73
2022-07-25T12:02:25.499Z,3.75
2022-07-25T12:04:58.589Z,0.65
2022-07-25T12:07:51.898Z,1.88
2022-07-25T12:10:24.069Z,1.40
2022-07-25T12:12:55.060Z,2.63
2022-07-25T12:15:26.737Z,2.05
2022-07-25T12:17:55.749Z,3.75
2022-07-25T12:20:25.754Z,1.45
2022-07-25T12:22:55.093Z,2.00
2022-07-25T12:25:33.035Z,1.70
2022-07-25T12:28:10.068Z,1.40
2022-07-25T12:30:38.854Z,0.52
2022-07-25T12:33:09.439Z,1.30
2022-07-25T12:35:38.154Z,1.30
2022-07-25T12:38:07.110Z,0.77
2022-07-25T12:40:36.203Z,0.55
2022-07-25T12:43:06.568Z,2.60
2022-07-25T12:45:52.019Z,0.90
2022-07-25T12:48:20.079Z,0.40
2022-07-25T12:50:49.592Z,1.33
2022-07-25T12:53:17.730Z,1.20
2022-07-25T12:55:50.826Z,0.82
2022-07-25T12:58:18.259Z,1.77
2022-07-25T13:00:46.645Z,0.38
2022-07-25T13:03:15.213Z,1.45
2022-07-25T13:05:42.709Z,2.83
2022-07-25T13:08:10.245Z,2.38
2022-07-25T13:10:37.809Z,2.33
2022-07-25T13:13:06.612Z,3.13
2022-07-25T13:15:36.369Z,1.00
2022-07-25T13:18:04.073Z,3.13
2022-07-25T13:20:31.869Z,1.92
2022-07-25T13:22:59.339Z,2.05
2022-07-25T13:25:27.030Z,1.02
2022-07-25T13:27:55.491Z,1.63
2022-07-25T13:30:26.582Z,2.13
2022-07-25T13:32:58.401Z,1.58
2022-07-25T13:35:35.085Z,0.93
2022-07-25T13:38:05.920Z,1.45
2022-07-25T13:40:33.657Z,1.42
2022-07-25T13:43:01.070Z,0.63
2022-07-25T13:45:32.033Z,1.75
2022-07-25T13:48:28.925Z,1.63
2022-07-25T13:50:57.338Z,2.33
2022-07-25T13:53:29.774Z,0.95
2022-07-25T13:55:58.995Z,2.97
2022-07-25T13:58:27.074Z,1.52
2022-07-25T14:00:58.181Z,1.70
2022-07-25T14:03:26.990Z,2.58
2022-07-25T14:05:54.464Z,2.00
2022-07-25T14:08:22.173Z,2.45
2022-07-25T14:10:49.597Z,1.58
2022-07-25T14:13:17.094Z,3.33
2022-07-25T14:15:44.882Z,2.38
2022-07-25T14:18:15.102Z,0.93
2022-07-25T14:20:44.953Z,2.55
2022-07-25T14:23:12.534Z,3.17
2022-07-25T14:25:40.001Z,1.73
2022-07-25T14:28:07.558Z,1.65
2022-07-25T14:30:35.026Z,1.15
2022-07-25T14:33:02.451Z,1.20
2022-07-25T14:35:32.741Z,1.98
2022-07-25T14:38:00.633Z,2.88
2022-07-25T14:40:29.051Z,2.13
2022-07-25T14:42:56.550Z,1.65
2022-07-25T14:45:23.967Z,2.60
2022-07-25T14:47:51.410Z,2.55
2022-07-25T14:50:19.045Z,3.50
2022-07-25T14:52:47.906Z,3.55
2022-07-25T14:55:15.366Z,1.35
2022-07-25T14:57:44.879Z,2.15
2022-07-25T15:00:13.280Z,2.78
2022-07-25T15:02:40.725Z,2.08
2022-07-25T15:05:08.670Z,1.92
2022-07-25T15:07:37.745Z,2.83
2022-07-25T15:10:08.296Z,3.53
2022-07-25T15:12:35.832Z,2.97
2022-07-25T15:15:03.597Z,1.42
2022-07-25T15:17:31.085Z,2.42
2022-07-25T15:19:58.499Z,1.42
2022-07-25T15:22:25.936Z,3.10
2022-07-25T15:27:42.146Z,2.88
2022-07-25T15:30:10.809Z,1.17
2022-07-25T15:32:39.021Z,1.42
2022-07-25T15:35:07.184Z,2.85
2022-07-25T15:37:34.802Z,2.75
2022-07-25T15:40:02.260Z,3.17
2022-07-25T15:42:29.918Z,1.02
2022-07-25T15:45:30.268Z,1.67
2022-07-25T15:47:50.828Z,3.13
2022-07-25T15:50:18.710Z,3.35
2022-07-25T15:52:46.187Z,2.00
2022-07-25T15:55:13.899Z,3.15
2022-07-25T15:57:41.404Z,2.53
2022-07-25T16:00:11.535Z,1.35
2022-07-25T16:02:38.940Z,3.67
2022-07-25T16:05:07.345Z,2.38
2022-07-25T16:07:34.804Z,3.22
2022-07-25T16:10:03.772Z,2.72
2022-07-25T16:12:31.308Z,2.28
2022-07-25T16:14:58.823Z,2.25
2022-07-25T16:17:28.302Z,2.20
2022-07-25T16:19:55.901Z,3.25
2022-07-25T16:22:23.431Z,4.57
2022-07-25T16:24:50.958Z,2.83
2022-07-25T16:27:18.872Z,1.45
2022-07-25T16:29:46.374Z,2.10
2022-07-25T16:32:13.834Z,1.13
2022-07-25T16:34:44.922Z,2.45
2022-07-25T16:37:12.852Z,1.30
2022-07-25T16:39:40.894Z,1.67
2022-07-25T16:42:09.000Z,1.98
2022-07-25T16:44:36.483Z,2.70
2022-07-25T16:47:04.006Z,2.28
2022-07-25T16:49:33.932Z,0.80
2022-07-25T16:52:02.815Z,1.27
2022-07-25T16:54:30.325Z,1.02
2022-07-25T16:56:59.886Z,0.40
2022-07-25T16:59:28.934Z,0.63
2022-07-25T17:01:56.560Z,0.75
2022-07-25T17:04:24.086Z,1.38
2022-07-25T17:06:51.605Z,1.45
2022-07-25T17:09:21.969Z,1.02
2022-07-25T17:11:49.635Z,0.88
2022-07-25T17:14:17.053Z,0.93
2022-07-25T17:16:44.778Z,1.67
2022-07-25T17:19:12.210Z,0.70
2022-07-25T17:21:39.615Z,1.55
2022-07-25T17:24:08.096Z,2.33
2022-07-25T17:26:40.722Z,1.55
2022-07-25T17:29:09.313Z,0.88
2022-07-25T17:31:37.591Z,1.30
2022-07-25T17:34:07.418Z,0.98
2022-07-25T17:36:35.165Z,1.80
2022-07-25T17:39:03.251Z,0.88
2022-07-25T17:41:30.770Z,1.00
2022-07-25T17:43:59.553Z,0.63
2022-07-25T17:46:27.170Z,1.23
2022-07-25T17:48:54.942Z,1.35
2022-07-25T17:51:22.383Z,1.05
2022-07-25T17:53:49.778Z,1.17
2022-07-25T17:56:17.634Z,2.22
2022-07-25T17:58:45.116Z,2.30
2022-07-25T18:01:13.903Z,0.50
2022-07-25T18:03:41.642Z,0.73
2022-07-25T18:06:09.223Z,2.42
2022-07-25T18:08:38.614Z,2.53
2022-07-25T18:11:07.555Z,1.27
2022-07-25T18:13:35.322Z,1.90
2022-07-25T18:16:02.850Z,3.65
2022-07-25T18:18:32.901Z,1.90
2022-07-25T18:21:00.387Z,1.73
2022-07-25T18:23:28.706Z,2.00
2022-07-25T18:25:56.162Z,1.20
2022-07-25T18:28:24.975Z,3.85
2022-07-25T18:30:52.824Z,1.13
2022-07-25T18:33:20.404Z,0.75
2022-07-25T18:35:50.428Z,1.23
2022-07-25T18:38:17.851Z,1.00
2022-07-25T18:40:45.257Z,0.45
2022-07-25T18:43:12.860Z,0.05
2022-07-25T18:45:40.508Z,0.20
2022-07-25T18:48:09.131Z,1.70
2022-07-25T18:50:36.611Z,2.13
2022-07-25T18:53:06.529Z,1.08
2022-07-25T18:55:33.979Z,2.97
2022-07-25T18:58:01.630Z,2.05
2022-07-25T19:00:29.032Z,0.32
2022-07-25T19:02:56.438Z,0.65
2022-07-25T19:05:23.995Z,1.55
2022-07-25T19:07:51.665Z,0.50
2022-07-25T19:10:20.426Z,1.27
2022-07-25T19:12:47.842Z,1.00
2022-07-25T19:15:15.325Z,0.77
2022-07-25T19:17:42.950Z,0.00
2022-07-25T19:20:11.705Z,0.32
2022-07-25T19:22:39.114Z,0.00
2022-07-25T19:25:10.381Z,0.38
2022-07-25T19:27:40.336Z,1.27
2022-07-25T19:30:13.892Z,0.32
2022-07-25T19:32:45.575Z,0.73
2022-07-25T19:35:16.079Z,0.73
2022-07-25T19:37:45.262Z,0.70
2022-07-25T19:40:13.876Z,0.52
2022-07-25T19:42:43.668Z,1.23
2022-07-25T19:45:13.233Z,0.55
2022-07-25T19:47:41.753Z,0.80
2022-07-25T19:50:11.247Z,0.98
2022-07-25T19:52:38.798Z,0.57
2022-07-25T19:55:10.234Z,0.00
2022-07-25T19:57:37.834Z,0.00
2022-07-25T20:00:08.537Z,0.95
2022-07-25T20:02:37.940Z,0.25
2022-07-25T20:05:08.078Z,0.00
2022-07-25T20:07:36.501Z,0.15
2022-07-25T20:10:05.775Z,0.00
2022-07-25T20:12:38.315Z,0.80
2022-07-25T20:15:08.960Z,0.20
2022-07-25T20:17:37.183Z,0.05
2022-07-25T20:20:07.337Z,0.70
2022-07-25T20:22:37.479Z,0.73
2022-07-25T20:25:06.600Z,0.00
2022-07-25T20:27:42.136Z,0.00
2022-07-25T20:30:15.591Z,0.65
2022-07-25T20:32:43.340Z,0.10
2022-07-25T20:35:10.882Z,0.35
2022-07-25T20:37:39.826Z,1.23
2022-07-25T20:40:08.903Z,0.00
2022-07-25T20:42:40.454Z,0.88
2022-07-25T20:45:12.087Z,0.52
2022-07-25T20:47:40.108Z,1.23
2022-07-25T20:50:10.031Z,0.50
2022-07-25T20:52:38.530Z,1.55
2022-07-25T20:55:08.113Z,0.40
2022-07-25T20:57:41.110Z,0.00
2022-07-25T21:00:11.913Z,0.00
2022-07-25T21:02:42.325Z,0.00
2022-07-25T21:05:17.605Z,0.05
2022-07-25T21:07:53.020Z,0.65
2022-07-25T21:10:21.056Z,1.38
2022-07-25T21:12:50.277Z,0.85
2022-07-25T21:15:21.050Z,0.52
2022-07-25T21:17:52.637Z,0.52
2022-07-25T21:20:20.134Z,1.15
2022-07-25T21:22:48.936Z,1.63
2022-07-25T21:25:16.406Z,0.00
2022-07-25T21:27:43.823Z,1.05
2022-07-25T21:30:12.496Z,1.25
2022-07-25T21:32:42.185Z,0.20
2022-07-25T21:35:10.303Z,0.30
2022-07-25T21:37:37.784Z,3.05
2022-07-25T21:40:06.063Z,0.70
2022-07-25T21:42:33.474Z,0.32
2022-07-25T21:45:00.884Z,0.32
2022-07-25T21:47:28.329Z,0.88
2022-07-25T21:50:23.204Z,0.00
2022-07-25T21:52:55.180Z,0.10
2022-07-25T21:55:22.668Z,0.70
2022-07-25T21:57:51.192Z,0.43
2022-07-25T22:00:19.708Z,0.32
2022-07-25T22:02:47.810Z,0.13
2022-07-25T22:05:18.988Z,0.40
2022-07-25T22:07:47.261Z,0.00
2022-07-25T22:10:17.367Z,0.85
2022-07-25T22:12:44.893Z,2.13
2022-07-25T22:15:14.289Z,0.32
2022-07-25T22:17:48.361Z,0.00
2022-07-25T22:20:19.837Z,0.45
2022-07-25T22:22:47.633Z,0.00
2022-07-25T22:25:15.369Z,0.00
2022-07-25T22:27:42.976Z,0.00
2022-07-25T22:30:16.450Z,0.00
2022-07-25T22:32:46.748Z,0.00
2022-07-25T22:35:14.264Z,0.00
2022-07-25T22:37:43.331Z,0.00
2022-07-25T22:40:12.005Z,0.05
2022-07-25T22:42:39.430Z,0.00
2022-07-25T22:45:08.058Z,0.08
2022-07-25T22:47:35.518Z,0.00
2022-07-25T22:50:02.911Z,0.00
2022-07-25T22:52:30.853Z,0.40
2022-07-25T22:54:59.596Z,0.05
2022-07-25T22:57:27.152Z,0.77
2022-07-25T22:59:54.624Z,0.15
2022-07-25T23:02:22.135Z,0.40
2022-07-25T23:04:49.553Z,0.05
2022-07-25T23:07:16.950Z,0.00
2022-07-25T23:09:44.372Z,0.00
2022-07-25T23:12:13.105Z,0.00
2022-07-25T23:14:40.595Z,0.00
2022-07-25T23:17:20.686Z,0.00
2022-07-25T23:19:50.820Z,0.90
2022-07-25T23:22:19.031Z,0.10
2022-07-25T23:24:46.673Z,0.73
2022-07-25T23:27:16.512Z,0.00
2022-07-25T23:29:43.957Z,0.00
2022-07-25T23:32:11.381Z,0.00
2022-07-25T23:34:38.801Z,0.00
2022-07-25T23:37:06.220Z,0.00
2022-07-25T23:39:34.630Z,0.00
2022-07-25T23:42:03.032Z,0.00
2022-07-25T23:44:31.874Z,0.00
2022-07-25T23:46:59.812Z,0.03
2022-07-25T23:49:28.996Z,0.00
2022-07-25T23:51:57.103Z,0.25
2022-07-25T23:54:25.109Z,0.08
2022-07-25T23:56:52.649Z,0.00
2022-07-25T23:59:23.023Z,0.00
